Time;durP1;ratioP1;P1;durP2;ratioP2;P2;SDS_P1;SDS_P2;PMS_P1;PMS_P2;Temp;Humidity;BMP_temperature;BMP_pressure;BME280_temperature;BME280_humidity;BME280_pressure;Samples;Min_cycle;Max_cycle;Signal;HPM_P1;HPM_P2
2024/03/02 00:00:13;;;;;;;39.65;23.30;;;;;;;;;;5024346;28;20065;-58
2024/03/02 00:02:41;;;;;;;41.55;23.27;;;;;;;;;;5015415;28;20026;-57
2024/03/02 00:05:07;;;;;;;38.75;22.98;;;;;;;;;;5010118;28;20022;-56
2024/03/02 00:07:32;;;;;;;37.70;22.45;;;;;;;;;;5010992;28;20026;-57
2024/03/02 00:09:57;;;;;;;42.85;24.60;;;;;;;;;;5010913;28;20026;-57
2024/03/02 00:12:22;;;;;;;41.37;22.70;;;;;;;;;;5011485;28;20030;-57
2024/03/02 00:14:48;;;;;;;42.20;23.73;;;;;;;;;;5009670;28;20536;-57
2024/03/02 00:17:19;;;;;;;43.83;23.85;;;;;;;;;;5011024;28;20022;-57
2024/03/02 00:19:44;;;;;;;40.50;23.02;;;;;;;;;;5000478;28;20026;-59
2024/03/02 00:22:09;;;;;;;38.88;22.83;;;;;;;;;;5015537;28;20109;-57
2024/03/02 00:24:34;;;;;;;40.40;21.92;;;;;;;;;;5024557;28;20045;-58
2024/03/02 00:27:01;;;;;;;41.83;23.85;;;;;;;;;;5029745;28;20109;-58
2024/03/02 00:29:27;;;;;;;40.42;22.70;;;;;;;;;;5026422;28;20032;-58
2024/03/02 00:31:53;;;;;;;39.55;20.70;;;;;;;;;;5019576;28;20086;-57
2024/03/02 00:34:18;;;;;;;37.25;21.95;;;;;;;;;;5016613;28;20026;-57
2024/03/02 00:36:44;;;;;;;38.63;22.93;;;;;;;;;;5009598;28;20022;-58
2024/03/02 00:39:13;;;;;;;38.20;23.25;;;;;;;;;;5010559;28;20113;-57
2024/03/02 00:41:40;;;;;;;35.72;21.73;;;;;;;;;;5009059;28;20100;-57
2024/03/02 00:44:15;;;;;;;36.92;21.15;;;;;;;;;;5009876;28;20030;-57
2024/03/02 00:46:41;;;;;;;37.75;21.42;;;;;;;;;;5011605;28;20032;-57
2024/03/02 00:49:19;;;;;;;37.25;22.02;;;;;;;;;;5022505;28;20022;-57
2024/03/02 00:51:46;;;;;;;38.45;22.02;;;;;;;;;;5014037;28;20034;-58
2024/03/02 00:54:11;;;;;;;36.20;21.88;;;;;;;;;;5012814;28;20306;-57
2024/03/02 00:56:36;;;;;;;40.73;22.13;;;;;;;;;;5015145;28;20018;-58
2024/03/02 00:59:01;;;;;;;38.60;21.43;;;;;;;;;;5015101;28;20105;-57
2024/03/02 01:01:27;;;;;;;37.80;22.10;;;;;;;;;;5014530;28;20021;-58
2024/03/02 01:03:52;;;;;;;46.10;24.63;;;;;;;;;;5013395;28;20018;-57
2024/03/02 01:06:18;;;;;;;39.40;22.25;;;;;;;;;;5015028;28;20440;-57
2024/03/02 01:08:43;;;;;;;37.13;22.00;;;;;;;;;;5017105;28;20014;-57
2024/03/02 01:11:09;;;;;;;38.15;22.25;;;;;;;;;;5018529;28;20045;-57
2024/03/02 01:13:34;;;;;;;37.10;22.07;;;;;;;;;;5016838;28;20030;-57
2024/03/02 01:15:59;;;;;;;41.63;24.27;;;;;;;;;;5013530;28;20033;-57
2024/03/02 01:18:24;;;;;;;40.15;22.77;;;;;;;;;;5014786;28;20071;-57
2024/03/02 01:20:55;;;;;;;42.47;23.27;;;;;;;;;;5014438;28;20038;-58
2024/03/02 01:23:20;;;;;;;39.60;23.02;;;;;;;;;;5013910;28;20026;-57
2024/03/02 01:25:47;;;;;;;41.75;23.25;;;;;;;;;;5014472;28;20029;-57
2024/03/02 01:28:12;;;;;;;36.72;21.52;;;;;;;;;;5013876;28;20036;-57
2024/03/02 01:30:37;;;;;;;40.88;23.88;;;;;;;;;;5014573;28;20022;-57
2024/03/02 01:33:05;;;;;;;38.05;21.95;;;;;;;;;;5017986;28;20025;-57
2024/03/02 01:35:30;;;;;;;34.83;20.35;;;;;;;;;;5013451;28;20029;-58
2024/03/02 01:37:55;;;;;;;39.83;23.10;;;;;;;;;;5014414;28;20025;-57
2024/03/02 01:40:20;;;;;;;36.40;22.17;;;;;;;;;;5014382;28;20127;-58
2024/03/02 01:42:45;;;;;;;40.17;23.23;;;;;;;;;;5013851;28;20030;-58
2024/03/02 01:45:10;;;;;;;38.67;22.97;;;;;;;;;;5013002;28;20030;-57
2024/03/02 01:47:36;;;;;;;43.22;24.27;;;;;;;;;;5013395;28;20025;-58
2024/03/02 01:50:01;;;;;;;45.90;25.92;;;;;;;;;;5014250;28;20041;-58
2024/03/02 01:52:27;;;;;;;49.47;26.77;;;;;;;;;;5004627;28;20023;-57
2024/03/02 01:54:52;;;;;;;44.30;22.80;;;;;;;;;;5012605;28;20018;-59
2024/03/02 01:57:17;;;;;;;44.95;24.60;;;;;;;;;;5013564;28;20108;-57
2024/03/02 01:59:43;;;;;;;41.92;24.52;;;;;;;;;;5013324;28;20030;-58
2024/03/02 02:02:08;;;;;;;38.95;22.23;;;;;;;;;;5021766;28;20030;-58
2024/03/02 02:04:33;;;;;;;43.33;24.57;;;;;;;;;;5016214;28;20032;-58
2024/03/02 02:06:59;;;;;;;39.45;22.80;;;;;;;;;;5005348;28;20458;-57
2024/03/02 02:09:24;;;;;;;39.45;22.42;;;;;;;;;;5012949;28;20030;-57
2024/03/02 02:11:50;;;;;;;48.13;27.33;;;;;;;;;;5013058;28;20051;-57
2024/03/02 02:14:15;;;;;;;52.45;28.52;;;;;;;;;;5011856;28;20120;-57
2024/03/02 02:16:40;;;;;;;50.70;27.15;;;;;;;;;;5012871;28;20430;-58
2024/03/02 02:19:05;;;;;;;49.00;27.50;;;;;;;;;;5012748;28;20444;-57
2024/03/02 02:21:31;;;;;;;49.80;27.40;;;;;;;;;;5011436;28;20409;-58
2024/03/02 02:23:56;;;;;;;51.20;26.50;;;;;;;;;;5011745;28;20025;-58
2024/03/02 02:26:21;;;;;;;53.25;26.58;;;;;;;;;;5012517;28;20042;-58
2024/03/02 02:28:49;;;;;;;51.27;26.80;;;;;;;;;;5007242;28;20026;-58
2024/03/02 02:31:14;;;;;;;49.63;24.42;;;;;;;;;;5011438;28;20111;-59
2024/03/02 02:33:40;;;;;;;52.83;27.50;;;;;;;;;;5012433;28;20068;-58
2024/03/02 02:36:05;;;;;;;54.55;27.60;;;;;;;;;;5012171;28;20449;-57
2024/03/02 02:38:30;;;;;;;47.73;24.93;;;;;;;;;;5014614;28;20030;-58
2024/03/02 02:40:55;;;;;;;54.10;28.38;;;;;;;;;;5006922;28;20034;-57
2024/03/02 02:43:21;;;;;;;49.10;24.87;;;;;;;;;;5011849;28;20389;-58
2024/03/02 02:45:46;;;;;;;52.63;27.10;;;;;;;;;;5012062;28;20030;-58
2024/03/02 02:48:11;;;;;;;55.95;27.00;;;;;;;;;;5011384;28;20032;-58
2024/03/02 02:50:36;;;;;;;49.33;25.93;;;;;;;;;;5012331;28;20109;-58
2024/03/02 02:53:01;;;;;;;54.00;26.33;;;;;;;;;;5010447;28;20026;-58
2024/03/02 02:55:27;;;;;;;55.97;28.30;;;;;;;;;;5018837;28;20143;-58
2024/03/02 02:57:52;;;;;;;58.47;29.03;;;;;;;;;;4998055;28;20018;-57
2024/03/02 03:00:19;;;;;;;59.35;28.73;;;;;;;;;;4995457;28;20039;-57
2024/03/02 03:02:47;;;;;;;52.47;26.67;;;;;;;;;;5010172;28;20101;-57
2024/03/02 03:05:13;;;;;;;51.70;25.88;;;;;;;;;;5012890;28;20056;-57
2024/03/02 03:07:41;;;;;;;59.03;26.92;;;;;;;;;;5016159;28;20021;-57
2024/03/02 03:10:07;;;;;;;61.65;27.38;;;;;;;;;;5020480;28;20044;-58
2024/03/02 03:12:33;;;;;;;52.85;25.13;;;;;;;;;;5017782;28;20425;-57
2024/03/02 03:14:58;;;;;;;55.40;26.10;;;;;;;;;;5019328;28;20028;-59
2024/03/02 03:17:23;;;;;;;59.93;27.87;;;;;;;;;;5024509;28;20017;-58
2024/03/02 03:19:49;;;;;;;56.80;25.80;;;;;;;;;;5023957;28;20036;-58
2024/03/02 03:22:14;;;;;;;58.92;27.33;;;;;;;;;;5013361;28;20021;-59
2024/03/02 03:24:39;;;;;;;57.20;26.42;;;;;;;;;;5012753;28;20121;-57
2024/03/02 03:27:04;;;;;;;59.63;25.98;;;;;;;;;;5031313;28;20029;-58
2024/03/02 03:29:29;;;;;;;64.90;29.63;;;;;;;;;;5012487;28;20030;-58
2024/03/02 03:31:54;;;;;;;64.80;29.93;;;;;;;;;;4997830;28;20105;-58
2024/03/02 03:34:20;;;;;;;68.78;29.70;;;;;;;;;;4996432;28;20014;-58
2024/03/02 03:36:45;;;;;;;57.80;26.08;;;;;;;;;;4999319;28;20033;-58
2024/03/02 03:39:10;;;;;;;66.13;28.65;;;;;;;;;;5011334;28;20133;-57
2024/03/02 03:41:35;;;;;;;69.90;28.77;;;;;;;;;;5011272;28;20018;-57
2024/03/02 03:44:01;;;;;;;66.20;27.90;;;;;;;;;;5012360;28;20152;-57
2024/03/02 03:46:26;;;;;;;67.50;28.58;;;;;;;;;;5011139;28;20531;-58
2024/03/02 03:48:51;;;;;;;72.22;29.48;;;;;;;;;;5011142;28;20029;-57
2024/03/02 03:51:16;;;;;;;69.27;27.97;;;;;;;;;;5010987;28;20029;-58
2024/03/02 03:53:41;;;;;;;57.15;25.52;;;;;;;;;;5011542;28;20029;-58
2024/03/02 03:56:06;;;;;;;62.00;25.87;;;;;;;;;;5011118;28;20567;-58
2024/03/02 03:58:31;;;;;;;60.03;26.97;;;;;;;;;;5012000;28;20032;-57
2024/03/02 04:00:57;;;;;;;65.78;27.90;;;;;;;;;;5015190;28;20094;-58
2024/03/02 04:03:22;;;;;;;69.18;28.17;;;;;;;;;;5016486;28;20038;-59
2024/03/02 04:05:47;;;;;;;63.13;26.13;;;;;;;;;;5014760;28;20578;-57
2024/03/02 04:08:12;;;;;;;74.63;31.07;;;;;;;;;;5013896;28;20075;-57
2024/03/02 04:10:38;;;;;;;75.30;27.50;;;;;;;;;;5012813;28;20033;-58
2024/03/02 04:13:03;;;;;;;72.85;30.65;;;;;;;;;;5014987;28;20089;-58
2024/03/02 04:15:28;;;;;;;77.13;30.53;;;;;;;;;;5016660;28;20052;-57
2024/03/02 04:17:53;;;;;;;71.87;26.80;;;;;;;;;;5011374;28;20029;-57
2024/03/02 04:20:18;;;;;;;66.70;26.90;;;;;;;;;;5014843;28;20061;-58
2024/03/02 04:22:44;;;;;;;63.55;26.67;;;;;;;;;;5008563;28;20022;-58
2024/03/02 04:25:09;;;;;;;69.67;27.73;;;;;;;;;;5011150;28;20052;-58
2024/03/02 04:27:34;;;;;;;63.50;25.80;;;;;;;;;;5010938;28;20022;-58
2024/03/02 04:30:00;;;;;;;59.35;24.50;;;;;;;;;;5015379;28;20413;-58
2024/03/02 04:32:25;;;;;;;65.18;27.83;;;;;;;;;;5024732;28;20032;-58
2024/03/02 04:34:50;;;;;;;73.05;29.40;;;;;;;;;;5030359;28;20026;-58
2024/03/02 04:37:15;;;;;;;72.85;28.75;;;;;;;;;;5027980;28;20034;-59
2024/03/02 04:39:41;;;;;;;72.73;28.47;;;;;;;;;;5014859;28;20036;-58
2024/03/02 04:42:06;;;;;;;69.50;28.42;;;;;;;;;;5025478;28;20042;-58
2024/03/02 04:44:31;;;;;;;70.60;28.67;;;;;;;;;;5038693;28;20022;-58
2024/03/02 04:46:56;;;;;;;63.30;25.00;;;;;;;;;;5000943;28;20436;-58
2024/03/02 04:49:21;;;;;;;67.17;27.83;;;;;;;;;;5014118;28;20026;-59
2024/03/02 04:51:46;;;;;;;64.90;26.10;;;;;;;;;;5014287;28;20034;-58
2024/03/02 04:54:14;;;;;;;74.82;30.08;;;;;;;;;;5013783;28;20030;-58
2024/03/02 04:56:44;;;;;;;66.20;27.52;;;;;;;;;;5013815;28;20026;-59
2024/03/02 04:59:09;;;;;;;63.97;26.08;;;;;;;;;;5014524;28;20024;-57
2024/03/02 05:01:34;;;;;;;59.80;25.05;;;;;;;;;;5018385;28;20022;-57
2024/03/02 05:03:59;;;;;;;59.10;25.23;;;;;;;;;;5024064;28;20107;-58
2024/03/02 05:06:24;;;;;;;61.20;25.60;;;;;;;;;;5015302;28;20860;-57
2024/03/02 05:08:50;;;;;;;67.67;28.30;;;;;;;;;;5017184;28;20443;-57
2024/03/02 05:13:58;;;;;;;69.03;26.73;;;;;;;;;;5020420;28;20036;-57
2024/03/02 05:16:24;;;;;;;61.47;24.80;;;;;;;;;;5009072;28;20452;-56
2024/03/02 05:18:49;;;;;;;58.20;25.15;;;;;;;;;;5011464;28;20030;-57
2024/03/02 05:21:14;;;;;;;57.25;25.50;;;;;;;;;;5011332;28;20037;-58
2024/03/02 05:23:39;;;;;;;58.30;24.67;;;;;;;;;;5013271;28;20053;-57
2024/03/02 05:26:04;;;;;;;56.63;24.13;;;;;;;;;;5012141;28;20087;-58
2024/03/02 05:28:29;;;;;;;62.30;25.60;;;;;;;;;;5012960;28;20032;-58
2024/03/02 05:30:55;;;;;;;54.47;23.27;;;;;;;;;;5012696;28;20041;-56
2024/03/02 05:33:22;;;;;;;55.65;23.50;;;;;;;;;;5012640;28;20106;-57
2024/03/02 05:35:47;;;;;;;55.10;24.27;;;;;;;;;;5004190;28;20040;-57
2024/03/02 05:38:12;;;;;;;47.03;22.98;;;;;;;;;;5009313;28;20013;-57
2024/03/02 05:40:37;;;;;;;47.33;22.00;;;;;;;;;;5012634;28;20042;-58
2024/03/02 05:43:03;;;;;;;48.80;21.90;;;;;;;;;;5013063;28;20490;-57
2024/03/02 05:45:28;;;;;;;52.80;24.10;;;;;;;;;;5012736;28;20033;-58
2024/03/02 05:47:53;;;;;;;50.23;21.57;;;;;;;;;;5007805;28;20030;-57
2024/03/02 05:50:19;;;;;;;48.05;23.17;;;;;;;;;;5011668;28;20133;-59
2024/03/02 05:52:45;;;;;;;44.78;21.48;;;;;;;;;;5011062;28;20083;-57
2024/03/02 05:55:10;;;;;;;49.53;22.67;;;;;;;;;;5012497;28;20089;-57
2024/03/02 06:00:09;;;;;;;43.38;21.30;;;;;;;;;;5009106;28;20092;-57
2024/03/02 06:02:35;;;;;;;51.13;24.07;;;;;;;;;;5013075;28;20022;-58
2024/03/02 06:05:00;;;;;;;44.63;21.65;;;;;;;;;;5016918;28;20018;-57
2024/03/02 06:07:25;;;;;;;52.33;24.47;;;;;;;;;;5011099;28;20390;-57
2024/03/02 06:09:52;;;;;;;50.72;22.85;;;;;;;;;;5013032;28;20048;-57
2024/03/02 06:12:17;;;;;;;52.00;23.15;;;;;;;;;;5012476;28;20026;-59
2024/03/02 06:14:43;;;;;;;52.33;23.77;;;;;;;;;;5014974;28;20366;-57
2024/03/02 06:17:08;;;;;;;53.00;22.80;;;;;;;;;;5012049;28;20033;-58
2024/03/02 06:19:33;;;;;;;47.72;21.75;;;;;;;;;;5011537;28;20065;-57
2024/03/02 06:21:58;;;;;;;46.92;22.08;;;;;;;;;;5005335;28;20037;-57
2024/03/02 06:24:23;;;;;;;51.88;23.85;;;;;;;;;;5008693;28;20069;-57
2024/03/02 06:26:48;;;;;;;52.20;22.88;;;;;;;;;;5012289;28;20022;-57
2024/03/02 06:29:13;;;;;;;44.85;20.58;;;;;;;;;;5011023;28;20037;-57
2024/03/02 06:31:39;;;;;;;50.42;22.48;;;;;;;;;;5011472;28;20062;-57
2024/03/02 06:34:04;;;;;;;49.65;22.98;;;;;;;;;;5011278;28;20021;-57
2024/03/02 06:36:29;;;;;;;49.05;23.35;;;;;;;;;;5016488;28;20097;-58
2024/03/02 06:38:54;;;;;;;51.08;23.35;;;;;;;;;;5011917;28;20013;-57
2024/03/02 06:41:20;;;;;;;52.78;24.10;;;;;;;;;;5010284;28;20144;-57
2024/03/02 06:43:45;;;;;;;50.80;22.92;;;;;;;;;;5010609;28;20022;-56
2024/03/02 06:46:14;;;;;;;49.20;21.53;;;;;;;;;;5019124;28;20961;-57
2024/03/02 06:48:39;;;;;;;52.05;23.42;;;;;;;;;;5012315;28;20014;-58
2024/03/02 06:51:04;;;;;;;47.38;20.98;;;;;;;;;;5011241;28;20080;-58
2024/03/02 06:53:31;;;;;;;49.65;22.55;;;;;;;;;;5007620;28;20041;-57
2024/03/02 06:55:56;;;;;;;47.67;21.02;;;;;;;;;;5010629;28;20029;-57
2024/03/02 06:58:21;;;;;;;49.95;21.90;;;;;;;;;;5012942;28;20037;-57
2024/03/02 07:00:48;;;;;;;54.22;23.60;;;;;;;;;;5018155;28;20486;-58
2024/03/02 07:03:13;;;;;;;50.92;21.48;;;;;;;;;;5010043;28;20032;-57
2024/03/02 07:05:38;;;;;;;52.03;22.60;;;;;;;;;;5015108;28;20029;-58
2024/03/02 07:08:05;;;;;;;45.23;19.53;;;;;;;;;;5016397;28;20425;-57
2024/03/02 07:10:30;;;;;;;48.88;21.73;;;;;;;;;;5017235;28;20105;-58
2024/03/02 07:12:55;;;;;;;50.88;22.05;;;;;;;;;;5018036;28;20119;-58
2024/03/02 07:17:52;;;;;;;49.55;21.80;;;;;;;;;;5012182;28;20026;-57
2024/03/02 07:20:17;;;;;;;52.60;21.20;;;;;;;;;;5011915;28;20030;-58
2024/03/02 07:22:42;;;;;;;56.70;22.83;;;;;;;;;;5011928;28;20028;-57
2024/03/02 07:25:08;;;;;;;49.60;22.42;;;;;;;;;;5012977;28;20031;-57
2024/03/02 07:27:35;;;;;;;60.45;23.30;;;;;;;;;;5007327;28;20018;-57
2024/03/02 07:30:01;;;;;;;54.60;23.98;;;;;;;;;;5012070;28;20037;-58
2024/03/02 07:32:26;;;;;;;54.70;23.25;;;;;;;;;;5010880;28;20028;-58
2024/03/02 07:34:51;;;;;;;53.90;22.67;;;;;;;;;;5006054;28;20414;-56
2024/03/02 07:37:17;;;;;;;48.15;21.67;;;;;;;;;;4991890;28;20030;-57
2024/03/02 07:39:43;;;;;;;48.78;22.30;;;;;;;;;;5004790;28;20026;-57
2024/03/02 07:42:08;;;;;;;50.55;22.27;;;;;;;;;;5012595;28;20516;-57
2024/03/02 07:44:34;;;;;;;50.08;23.02;;;;;;;;;;5003068;28;20045;-57
2024/03/02 07:47:00;;;;;;;58.78;23.42;;;;;;;;;;5011375;28;20025;-57
2024/03/02 07:49:26;;;;;;;57.67;24.47;;;;;;;;;;5011131;28;20102;-57
2024/03/02 07:51:51;;;;;;;62.13;26.38;;;;;;;;;;5008184;28;20053;-58
2024/03/02 07:54:16;;;;;;;59.93;23.40;;;;;;;;;;5010569;28;20453;-57
2024/03/02 07:56:41;;;;;;;57.67;23.77;;;;;;;;;;5011776;28;20034;-57
2024/03/02 07:59:07;;;;;;;59.10;23.83;;;;;;;;;;5011073;28;20379;-58
2024/03/02 08:01:32;;;;;;;62.05;25.23;;;;;;;;;;5007612;28;20017;-57
2024/03/02 08:03:58;;;;;;;62.27;25.73;;;;;;;;;;5007569;28;20014;-57
2024/03/02 08:06:27;;;;;;;64.45;26.23;;;;;;;;;;5008014;28;20390;-57
2024/03/02 08:08:52;;;;;;;63.75;26.70;;;;;;;;;;5007469;28;20474;-58
2024/03/02 08:11:17;;;;;;;66.07;26.20;;;;;;;;;;5010913;28;20018;-58
2024/03/02 08:13:42;;;;;;;64.10;26.37;;;;;;;;;;5009684;28;20504;-57
2024/03/02 08:16:09;;;;;;;64.90;26.50;;;;;;;;;;5008799;28;20109;-58
2024/03/02 08:18:34;;;;;;;63.60;23.80;;;;;;;;;;5008035;28;20458;-58
2024/03/02 08:20:59;;;;;;;64.45;24.08;;;;;;;;;;5011025;28;20112;-59
2024/03/02 08:23:24;;;;;;;63.47;23.70;;;;;;;;;;5012197;28;20029;-57
2024/03/02 08:25:49;;;;;;;52.92;21.80;;;;;;;;;;5014936;28;20482;-57
2024/03/02 08:28:15;;;;;;;50.35;21.55;;;;;;;;;;5012067;28;20509;-58
2024/03/02 08:30:40;;;;;;;54.00;22.13;;;;;;;;;;5017280;28;20038;-57
2024/03/02 08:33:05;;;;;;;47.38;21.00;;;;;;;;;;5010675;28;20097;-59
2024/03/02 08:35:35;;;;;;;50.33;21.23;;;;;;;;;;5010320;28;20088;-58
2024/03/02 08:38:00;;;;;;;48.95;20.90;;;;;;;;;;5010845;28;20429;-59
2024/03/02 08:40:26;;;;;;;48.92;19.77;;;;;;;;;;5010232;28;20057;-56
2024/03/02 08:42:51;;;;;;;47.30;18.95;;;;;;;;;;5010582;28;20408;-55
2024/03/02 08:45:17;;;;;;;45.10;19.40;;;;;;;;;;5010617;28;20065;-58
2024/03/02 08:47:42;;;;;;;47.37;19.37;;;;;;;;;;5012235;28;20102;-57
2024/03/02 08:50:08;;;;;;;51.40;21.05;;;;;;;;;;5013921;28;20172;-57
2024/03/02 08:52:33;;;;;;;48.42;20.55;;;;;;;;;;5004369;28;20037;-57
2024/03/02 08:54:58;;;;;;;47.50;20.07;;;;;;;;;;5014403;28;20022;-58
2024/03/02 08:57:23;;;;;;;46.45;20.05;;;;;;;;;;5010622;28;20030;-58
2024/03/02 08:59:49;;;;;;;41.87;18.20;;;;;;;;;;5010502;28;20625;-57
2024/03/02 09:02:14;;;;;;;40.47;18.10;;;;;;;;;;5011251;28;20113;-59
2024/03/02 09:04:39;;;;;;;40.72;18.73;;;;;;;;;;5003868;28;20453;-57
2024/03/02 09:07:05;;;;;;;43.43;19.33;;;;;;;;;;5005849;28;20023;-57
2024/03/02 09:09:31;;;;;;;42.17;18.57;;;;;;;;;;5004032;28;20070;-58
2024/03/02 09:11:57;;;;;;;45.13;19.50;;;;;;;;;;5000070;28;20022;-58
2024/03/02 09:14:23;;;;;;;43.25;18.13;;;;;;;;;;5012915;28;20028;-56
2024/03/02 09:16:48;;;;;;;42.05;19.45;;;;;;;;;;5015721;28;20025;-58
2024/03/02 09:19:13;;;;;;;41.25;19.08;;;;;;;;;;5014062;28;20042;-57
2024/03/02 09:21:38;;;;;;;42.60;19.77;;;;;;;;;;5012494;28;20045;-58
2024/03/02 09:24:04;;;;;;;37.45;17.42;;;;;;;;;;5012393;28;20448;-58
2024/03/02 09:26:29;;;;;;;38.95;17.95;;;;;;;;;;5014657;28;20022;-57
2024/03/02 09:28:54;;;;;;;40.23;19.40;;;;;;;;;;5014224;28;20037;-57
2024/03/02 09:31:19;;;;;;;39.63;18.20;;;;;;;;;;5019673;28;20480;-57
2024/03/02 09:33:44;;;;;;;43.72;18.90;;;;;;;;;;5013503;28;20490;-56
2024/03/02 09:36:22;;;;;;;38.38;17.65;;;;;;;;;;5013853;28;20097;-58
2024/03/02 09:38:47;;;;;;;36.85;18.33;;;;;;;;;;5006903;28;20020;-57
2024/03/02 09:41:13;;;;;;;43.17;18.10;;;;;;;;;;5013158;28;20041;-57
2024/03/02 09:43:38;;;;;;;38.22;17.10;;;;;;;;;;5013755;28;20026;-58
2024/03/02 09:46:03;;;;;;;38.40;17.80;;;;;;;;;;5014100;28;20488;-58
2024/03/02 09:48:28;;;;;;;45.90;20.07;;;;;;;;;;5013387;28;20026;-58
2024/03/02 09:50:54;;;;;;;42.07;17.10;;;;;;;;;;5013496;28;20033;-57
2024/03/02 09:53:19;;;;;;;38.57;18.07;;;;;;;;;;5015977;28;20053;-57
2024/03/02 09:55:47;;;;;;;36.60;16.63;;;;;;;;;;5013376;28;20022;-58
2024/03/02 09:58:13;;;;;;;37.53;16.83;;;;;;;;;;5008480;28;20025;-58
2024/03/02 10:00:38;;;;;;;39.93;17.37;;;;;;;;;;5014604;28;20041;-57
2024/03/02 10:03:04;;;;;;;41.07;18.40;;;;;;;;;;5005351;28;20058;-58
2024/03/02 10:05:30;;;;;;;41.08;18.90;;;;;;;;;;5009815;28;20511;-59
2024/03/02 10:07:59;;;;;;;40.53;18.38;;;;;;;;;;5012984;28;20104;-57
2024/03/02 10:10:26;;;;;;;42.35;18.70;;;;;;;;;;5013050;28;20037;-57
2024/03/02 10:13:03;;;;;;;45.53;19.58;;;;;;;;;;5013815;28;20500;-58
2024/03/02 10:15:28;;;;;;;44.15;18.85;;;;;;;;;;5013386;28;20030;-56
2024/03/02 10:17:53;;;;;;;41.13;18.00;;;;;;;;;;5013277;28;20026;-58
2024/03/02 10:20:25;;;;;;;43.30;18.73;;;;;;;;;;5013234;28;20030;-58
2024/03/02 10:22:50;;;;;;;46.13;18.98;;;;;;;;;;5012583;28;20548;-58
2024/03/02 10:25:29;;;;;;;50.67;19.73;;;;;;;;;;5013586;28;20115;-58
2024/03/02 10:27:56;;;;;;;44.78;19.08;;;;;;;;;;5016334;28;20018;-57
2024/03/02 10:30:21;;;;;;;41.92;17.65;;;;;;;;;;5020330;28;20033;-57
2024/03/02 10:32:48;;;;;;;39.47;17.42;;;;;;;;;;5019331;28;20091;-57
2024/03/02 10:35:14;;;;;;;38.35;18.25;;;;;;;;;;5012279;28;20042;-57
2024/03/02 10:37:40;;;;;;;42.25;19.08;;;;;;;;;;5005090;28;20084;-58
2024/03/02 10:40:08;;;;;;;37.38;16.70;;;;;;;;;;5011915;28;20466;-58
2024/03/02 10:42:33;;;;;;;37.72;16.77;;;;;;;;;;5011132;28;20018;-57
2024/03/02 10:44:58;;;;;;;39.00;17.00;;;;;;;;;;5013955;28;20084;-57
2024/03/02 10:47:24;;;;;;;39.33;18.10;;;;;;;;;;5012616;28;20088;-59
2024/03/02 10:49:51;;;;;;;38.55;16.42;;;;;;;;;;5012675;28;20025;-59
2024/03/02 10:52:17;;;;;;;36.72;16.85;;;;;;;;;;5012518;28;20077;-59
2024/03/02 10:54:43;;;;;;;36.97;17.27;;;;;;;;;;5005914;28;20057;-58
2024/03/02 10:57:11;;;;;;;38.85;17.75;;;;;;;;;;5012426;28;20079;-58
2024/03/02 10:59:38;;;;;;;33.28;15.40;;;;;;;;;;4994702;28;20031;-60
2024/03/02 11:02:04;;;;;;;26.70;11.88;;;;;;;;;;5012953;28;20022;-57
2024/03/02 11:04:30;;;;;;;20.45;10.20;;;;;;;;;;5013011;28;20029;-57
2024/03/02 11:07:03;;;;;;;27.08;13.38;;;;;;;;;;5004886;28;20023;-58
2024/03/02 11:09:31;;;;;;;29.52;13.15;;;;;;;;;;5002599;28;20021;-57
2024/03/02 11:12:18;;;;;;;20.65;10.82;;;;;;;;;;5012773;28;20021;-56
2024/03/02 11:14:43;;;;;;;19.77;10.40;;;;;;;;;;5001734;28;20042;-59
2024/03/02 11:17:08;;;;;;;19.17;9.30;;;;;;;;;;5013816;28;20088;-58
2024/03/02 11:19:34;;;;;;;16.58;8.20;;;;;;;;;;5015058;28;20036;-60
2024/03/02 11:22:00;;;;;;;15.95;8.40;;;;;;;;;;5013060;28;20022;-60
2024/03/02 11:24:32;;;;;;;17.90;8.45;;;;;;;;;;5012995;28;20018;-58
2024/03/02 11:26:57;;;;;;;15.35;7.97;;;;;;;;;;5013965;28;20029;-58
2024/03/02 11:29:35;;;;;;;16.67;8.37;;;;;;;;;;5014927;28;20025;-59
2024/03/02 11:32:00;;;;;;;15.75;8.00;;;;;;;;;;5015676;28;20025;-56
2024/03/02 11:34:35;;;;;;;14.70;7.60;;;;;;;;;;5017550;28;20144;-57
2024/03/02 11:37:04;;;;;;;15.65;7.22;;;;;;;;;;5014741;28;20448;-59
2024/03/02 11:39:29;;;;;;;15.02;7.32;;;;;;;;;;5014639;28;20029;-58
2024/03/02 11:41:55;;;;;;;19.02;8.50;;;;;;;;;;5014186;28;20018;-58
2024/03/02 11:44:21;;;;;;;17.77;7.38;;;;;;;;;;5019748;28;20038;-57
2024/03/02 11:46:53;;;;;;;17.53;8.67;;;;;;;;;;5013543;28;20079;-58
2024/03/02 11:49:35;;;;;;;17.13;8.05;;;;;;;;;;5010343;28;20448;-59
2024/03/02 11:52:01;;;;;;;14.70;7.00;;;;;;;;;;5011783;28;20603;-58
2024/03/02 11:54:27;;;;;;;17.70;8.50;;;;;;;;;;5011330;28;20087;-59
2024/03/02 11:56:53;;;;;;;20.83;8.68;;;;;;;;;;5010970;28;20034;-57
2024/03/02 11:59:19;;;;;;;18.40;9.38;;;;;;;;;;5011649;28;20044;-58
2024/03/02 12:01:46;;;;;;;18.23;9.15;;;;;;;;;;5010210;28;20040;-58
2024/03/02 12:04:11;;;;;;;18.92;7.68;;;;;;;;;;5010281;28;20393;-58
2024/03/02 12:06:37;;;;;;;18.13;8.80;;;;;;;;;;5022230;28;20029;-57
2024/03/02 12:09:03;;;;;;;16.67;7.63;;;;;;;;;;4990670;28;20023;-57
2024/03/02 12:11:28;;;;;;;21.73;8.57;;;;;;;;;;4991613;28;20144;-58
2024/03/02 12:13:58;;;;;;;19.10;7.95;;;;;;;;;;5000798;28;20402;-58
2024/03/02 12:16:26;;;;;;;20.20;8.90;;;;;;;;;;5009830;28;20018;-58
2024/03/02 12:18:51;;;;;;;24.85;9.48;;;;;;;;;;5010775;28;20108;-58
2024/03/02 12:21:16;;;;;;;25.08;10.10;;;;;;;;;;5013107;28;20065;-59
2024/03/02 12:23:41;;;;;;;20.53;9.60;;;;;;;;;;5008721;28;20021;-58
2024/03/02 12:26:06;;;;;;;20.87;10.27;;;;;;;;;;5010565;28;20030;-58
2024/03/02 12:28:33;;;;;;;22.83;10.13;;;;;;;;;;5012214;28;20101;-58
2024/03/02 12:30:58;;;;;;;21.80;10.45;;;;;;;;;;5004940;28;20461;-57
2024/03/02 12:33:24;;;;;;;21.90;10.73;;;;;;;;;;5009509;28;20109;-57
2024/03/02 12:35:49;;;;;;;20.95;10.35;;;;;;;;;;5006444;28;20113;-57
2024/03/02 12:38:14;;;;;;;23.50;10.10;;;;;;;;;;5013557;28;20025;-58
2024/03/02 12:40:40;;;;;;;21.53;9.93;;;;;;;;;;5011312;28;20153;-57
2024/03/02 12:43:05;;;;;;;20.88;10.35;;;;;;;;;;5013645;28;20042;-59
2024/03/02 12:45:30;;;;;;;21.05;10.18;;;;;;;;;;5009773;28;20033;-57
2024/03/02 12:47:55;;;;;;;21.98;9.73;;;;;;;;;;5007150;28;20017;-58
2024/03/02 12:50:21;;;;;;;23.27;10.43;;;;;;;;;;5013022;28;20084;-58
2024/03/02 12:52:53;;;;;;;18.67;9.30;;;;;;;;;;5011784;28;20022;-58
2024/03/02 12:55:19;;;;;;;21.38;9.73;;;;;;;;;;5020526;28;20042;-58
2024/03/02 12:57:45;;;;;;;17.52;9.02;;;;;;;;;;5016288;28;20381;-57
2024/03/02 13:00:11;;;;;;;22.43;10.70;;;;;;;;;;5014806;28;20113;-58
2024/03/02 13:02:36;;;;;;;19.63;9.68;;;;;;;;;;5005816;28;20041;-57
2024/03/02 13:05:02;;;;;;;21.80;10.10;;;;;;;;;;5014920;28;20026;-59
2024/03/02 13:07:27;;;;;;;23.58;10.93;;;;;;;;;;5016205;28;20026;-58
2024/03/02 13:09:55;;;;;;;21.13;10.53;;;;;;;;;;5018482;28;20029;-63
2024/03/02 13:12:20;;;;;;;23.88;10.65;;;;;;;;;;5011930;28;20022;-58
2024/03/02 13:14:48;;;;;;;20.40;9.93;;;;;;;;;;5008093;28;20410;-58
2024/03/02 13:17:14;;;;;;;21.73;9.63;;;;;;;;;;5008741;28;20022;-57
2024/03/02 13:19:43;;;;;;;24.10;10.77;;;;;;;;;;5007842;28;20028;-57
2024/03/02 13:22:08;;;;;;;21.15;9.98;;;;;;;;;;5008578;28;20068;-58
2024/03/02 13:24:33;;;;;;;22.65;11.07;;;;;;;;;;5008013;28;20088;-58
2024/03/02 13:26:59;;;;;;;19.60;10.03;;;;;;;;;;5025153;28;20507;-58
2024/03/02 13:29:25;;;;;;;20.77;10.77;;;;;;;;;;5009649;28;20038;-58
2024/03/02 13:31:51;;;;;;;21.30;11.07;;;;;;;;;;5008173;28;20033;-57
2024/03/02 13:34:16;;;;;;;20.27;9.20;;;;;;;;;;5010046;28;20025;-58
2024/03/02 13:36:41;;;;;;;24.15;10.32;;;;;;;;;;5005910;28;20502;-58
2024/03/02 13:39:09;;;;;;;22.67;10.47;;;;;;;;;;5009702;28;20022;-59
2024/03/02 13:41:34;;;;;;;22.23;10.00;;;;;;;;;;5010155;28;20041;-58
2024/03/02 13:44:01;;;;;;;17.47;8.23;;;;;;;;;;5006356;28;20677;-57
2024/03/02 13:46:26;;;;;;;19.65;9.48;;;;;;;;;;5010477;28;20041;-59
2024/03/02 13:48:51;;;;;;;20.07;9.87;;;;;;;;;;5009299;28;20033;-59
2024/03/02 13:51:17;;;;;;;19.05;9.18;;;;;;;;;;5009078;28;20056;-59
2024/03/02 13:53:42;;;;;;;16.38;8.65;;;;;;;;;;5010975;28;20030;-59
2024/03/02 13:56:07;;;;;;;18.67;9.38;;;;;;;;;;5012426;28;20029;-58
2024/03/02 13:58:32;;;;;;;18.55;8.93;;;;;;;;;;5019812;28;20029;-57
2024/03/02 14:00:58;;;;;;;16.33;8.73;;;;;;;;;;5021430;28;20034;-58
2024/03/02 14:03:23;;;;;;;18.70;8.98;;;;;;;;;;5013844;28;20021;-58
2024/03/02 14:05:49;;;;;;;18.00;10.60;;;;;;;;;;5012841;28;20592;-58
2024/03/02 14:08:15;;;;;;;22.88;10.45;;;;;;;;;;5011990;28;20026;-61
2024/03/02 14:10:42;;;;;;;25.10;12.70;;;;;;;;;;5025886;28;20083;-57
2024/03/02 14:13:07;;;;;;;25.35;12.05;;;;;;;;;;5027043;28;20029;-57
2024/03/02 14:15:33;;;;;;;23.27;11.65;;;;;;;;;;5037113;28;20025;-59
2024/03/02 14:17:58;;;;;;;22.87;11.63;;;;;;;;;;5023098;28;20489;-57